sensor_id;sensor_type;location;lat;lon;timestamp;temperature;humidity
10051;DHT22;5065;46.942;7.432;2022-10-31T00:00:16;14.10;99.90
10051;DHT22;5065;46.942;7.432;2022-10-31T00:02:45;14.10;99.90
10051;DHT22;5065;46.942;7.432;2022-10-31T00:05:12;14.10;99.90
10051;DHT22;5065;46.942;7.432;2022-10-31T00:07:39;14.10;99.90
10051;DHT22;5065;46.942;7.432;2022-10-31T00:10:08;14.10;99.90
10051;DHT22;5065;46.942;7.432;2022-10-31T00:12:35;14.00;99.90
10051;DHT22;5065;46.942;7.432;2022-10-31T00:15:03;14.00;99.90
10051;DHT22;5065;46.942;7.432;2022-10-31T00:17:30;14.00;99.90
10051;DHT22;5065;46.942;7.432;2022-10-31T00:19:58;14.00;99.90
10051;DHT22;5065;46.942;7.432;2022-10-31T00:22:26;14.10;99.90
10051;DHT22;5065;46.942;7.432;2022-10-31T00:24:53;14.00;99.90
10051;DHT22;5065;46.942;7.432;2022-10-31T00:27:20;13.90;99.90
10051;DHT22;5065;46.942;7.432;2022-10-31T00:29:47;13.80;99.90
10051;DHT22;5065;46.942;7.432;2022-10-31T00:32:14;13.90;99.90
10051;DHT22;5065;46.942;7.432;2022-10-31T00:34:41;13.90;99.90
10051;DHT22;5065;46.942;7.432;2022-10-31T00:37:10;13.80;99.90
10051;DHT22;5065;46.942;7.432;2022-10-31T00:39:37;13.80;99.90
10051;DHT22;5065;46.942;7.432;2022-10-31T00:42:04;13.80;99.90
10051;DHT22;5065;46.942;7.432;2022-10-31T00:44:31;13.80;99.90
10051;DHT22;5065;46.942;7.432;2022-10-31T00:46:58;13.70;99.90
10051;DHT22;5065;46.942;7.432;2022-10-31T00:49:25;13.70;99.90
10051;DHT22;5065;46.942;7.432;2022-10-31T00:51:52;13.80;99.90
10051;DHT22;5065;46.942;7.432;2022-10-31T00:54:21;13.70;99.90
10051;DHT22;5065;46.942;7.432;2022-10-31T00:56:48;13.60;99.90
10051;DHT22;5065;46.942;7.432;2022-10-31T00:59:15;13.70;99.90
10051;DHT22;5065;46.942;7.432;2022-10-31T01:01:42;13.70;99.90
10051;DHT22;5065;46.942;7.432;2022-10-31T01:04:09;13.70;99.90
10051;DHT22;5065;46.942;7.432;2022-10-31T01:06:37;13.70;99.90
10051;DHT22;5065;46.942;7.432;2022-10-31T01:09:04;13.70;99.90
10051;DHT22;5065;46.942;7.432;2022-10-31T01:11:34;13.60;99.90
10051;DHT22;5065;46.942;7.432;2022-10-31T01:14:01;13.60;99.90
10051;DHT22;5065;46.942;7.432;2022-10-31T01:16:28;13.60;99.90
10051;DHT22;5065;46.942;7.432;2022-10-31T01:18:56;13.60;99.90
10051;DHT22;5065;46.942;7.432;2022-10-31T01:21:25;13.60;99.90
10051;DHT22;5065;46.942;7.432;2022-10-31T01:23:54;13.50;99.90
10051;DHT22;5065;46.942;7.432;2022-10-31T01:26:23;13.50;99.90
10051;DHT22;5065;46.942;7.432;2022-10-31T01:28:55;13.50;99.90
10051;DHT22;5065;46.942;7.432;2022-10-31T01:31:25;13.60;99.90
10051;DHT22;5065;46.942;7.432;2022-10-31T01:33:53;13.50;99.90
10051;DHT22;5065;46.942;7.432;2022-10-31T01:36:21;13.40;99.90
10051;DHT22;5065;46.942;7.432;2022-10-31T01:38:49;13.50;99.90
10051;DHT22;5065;46.942;7.432;2022-10-31T01:41:19;13.40;99.90
10051;DHT22;5065;46.942;7.432;2022-10-31T01:43:50;13.40;99.90
10051;DHT22;5065;46.942;7.432;2022-10-31T01:46:22;13.50;99.90
10051;DHT22;5065;46.942;7.432;2022-10-31T01:48:50;13.40;99.90
10051;DHT22;5065;46.942;7.432;2022-10-31T01:51:22;13.40;99.90
10051;DHT22;5065;46.942;7.432;2022-10-31T01:53:51;13.40;99.90
10051;DHT22;5065;46.942;7.432;2022-10-31T01:56:21;13.30;99.90
10051;DHT22;5065;46.942;7.432;2022-10-31T01:58:48;13.30;99.90
10051;DHT22;5065;46.942;7.432;2022-10-31T02:01:17;13.30;99.90
10051;DHT22;5065;46.942;7.432;2022-10-31T02:03:46;13.30;99.90
10051;DHT22;5065;46.942;7.432;2022-10-31T02:06:26;13.30;99.90
10051;DHT22;5065;46.942;7.432;2022-10-31T02:08:55;13.40;99.90
10051;DHT22;5065;46.942;7.432;2022-10-31T02:11:24;13.30;99.90
10051;DHT22;5065;46.942;7.432;2022-10-31T02:13:51;13.30;99.90
10051;DHT22;5065;46.942;7.432;2022-10-31T02:16:19;13.20;99.90
10051;DHT22;5065;46.942;7.432;2022-10-31T02:18:47;13.20;99.90
10051;DHT22;5065;46.942;7.432;2022-10-31T02:21:17;13.10;99.90
10051;DHT22;5065;46.942;7.432;2022-10-31T02:24:17;13.10;99.90
10051;DHT22;5065;46.942;7.432;2022-10-31T02:27:04;13.00;99.90
10051;DHT22;5065;46.942;7.432;2022-10-31T02:29:54;13.00;99.90
10051;DHT22;5065;46.942;7.432;2022-10-31T02:32:27;12.90;99.90
10051;DHT22;5065;46.942;7.432;2022-10-31T02:34:59;12.90;99.90
10051;DHT22;5065;46.942;7.432;2022-10-31T02:37:33;12.90;99.90
10051;DHT22;5065;46.942;7.432;2022-10-31T02:40:05;12.90;99.90
10051;DHT22;5065;46.942;7.432;2022-10-31T02:42:41;12.90;99.90
10051;DHT22;5065;46.942;7.432;2022-10-31T02:45:17;12.90;99.90
10051;DHT22;5065;46.942;7.432;2022-10-31T02:47:46;12.90;99.90
10051;DHT22;5065;46.942;7.432;2022-10-31T02:50:19;12.90;99.90
10051;DHT22;5065;46.942;7.432;2022-10-31T02:52:51;12.90;99.90
10051;DHT22;5065;46.942;7.432;2022-10-31T02:55:54;12.90;99.90
10051;DHT22;5065;46.942;7.432;2022-10-31T02:58:26;12.90;99.90
10051;DHT22;5065;46.942;7.432;2022-10-31T03:01:24;12.90;99.90
10051;DHT22;5065;46.942;7.432;2022-10-31T03:06:51;13.00;99.90
10051;DHT22;5065;46.942;7.432;2022-10-31T03:09:23;12.90;99.90
10051;DHT22;5065;46.942;7.432;2022-10-31T03:11:57;12.90;99.90
10051;DHT22;5065;46.942;7.432;2022-10-31T03:14:29;12.90;99.90
10051;DHT22;5065;46.942;7.432;2022-10-31T03:16:59;12.90;99.90
10051;DHT22;5065;46.942;7.432;2022-10-31T03:19:34;12.90;99.90
10051;DHT22;5065;46.942;7.432;2022-10-31T03:22:07;12.90;99.90
10051;DHT22;5065;46.942;7.432;2022-10-31T03:24:38;12.90;99.90
10051;DHT22;5065;46.942;7.432;2022-10-31T03:27:08;12.80;99.90
10051;DHT22;5065;46.942;7.432;2022-10-31T03:29:38;12.90;99.90
10051;DHT22;5065;46.942;7.432;2022-10-31T03:32:08;12.90;99.90
10051;DHT22;5065;46.942;7.432;2022-10-31T03:34:40;12.80;99.90
10051;DHT22;5065;46.942;7.432;2022-10-31T03:37:21;12.80;99.90
10051;DHT22;5065;46.942;7.432;2022-10-31T03:39:49;12.80;99.90
10051;DHT22;5065;46.942;7.432;2022-10-31T03:42:20;12.70;99.90
10051;DHT22;5065;46.942;7.432;2022-10-31T03:44:53;12.70;99.90
10051;DHT22;5065;46.942;7.432;2022-10-31T03:47:22;12.70;99.90
10051;DHT22;5065;46.942;7.432;2022-10-31T03:49:51;12.70;99.90
10051;DHT22;5065;46.942;7.432;2022-10-31T03:52:24;12.70;99.90
10051;DHT22;5065;46.942;7.432;2022-10-31T03:54:57;12.60;99.90
10051;DHT22;5065;46.942;7.432;2022-10-31T03:57:27;12.60;99.90
10051;DHT22;5065;46.942;7.432;2022-10-31T03:59:59;12.60;99.90
10051;DHT22;5065;46.942;7.432;2022-10-31T04:02:31;12.50;99.90
10051;DHT22;5065;46.942;7.432;2022-10-31T04:05:02;12.40;99.90
10051;DHT22;5065;46.942;7.432;2022-10-31T04:07:33;12.40;99.90
10051;DHT22;5065;46.942;7.432;2022-10-31T04:10:04;12.40;99.90
10051;DHT22;5065;46.942;7.432;2022-10-31T04:12:32;12.40;99.90
10051;DHT22;5065;46.942;7.432;2022-10-31T04:15:02;12.40;99.90
10051;DHT22;5065;46.942;7.432;2022-10-31T04:17:32;12.40;99.90
10051;DHT22;5065;46.942;7.432;2022-10-31T04:20:02;12.40;99.90
10051;DHT22;5065;46.942;7.432;2022-10-31T04:22:30;12.40;99.90
10051;DHT22;5065;46.942;7.432;2022-10-31T04:24:57;12.40;99.90
10051;DHT22;5065;46.942;7.432;2022-10-31T04:27:25;12.40;99.90
10051;DHT22;5065;46.942;7.432;2022-10-31T04:29:52;12.40;99.90
10051;DHT22;5065;46.942;7.432;2022-10-31T04:32:19;12.30;99.90
10051;DHT22;5065;46.942;7.432;2022-10-31T04:34:46;12.40;99.90
10051;DHT22;5065;46.942;7.432;2022-10-31T04:37:15;12.40;99.90
10051;DHT22;5065;46.942;7.432;2022-10-31T04:39:42;12.40;99.90
10051;DHT22;5065;46.942;7.432;2022-10-31T04:42:09;12.40;99.90
10051;DHT22;5065;46.942;7.432;2022-10-31T04:44:36;12.40;99.90
10051;DHT22;5065;46.942;7.432;2022-10-31T04:47:03;12.40;99.90
10051;DHT22;5065;46.942;7.432;2022-10-31T04:49:30;12.40;99.90
10051;DHT22;5065;46.942;7.432;2022-10-31T04:51:58;12.40;99.90
10051;DHT22;5065;46.942;7.432;2022-10-31T04:54:26;12.40;99.90
10051;DHT22;5065;46.942;7.432;2022-10-31T04:56:53;12.40;99.90
10051;DHT22;5065;46.942;7.432;2022-10-31T04:59:20;12.40;99.90
10051;DHT22;5065;46.942;7.432;2022-10-31T05:01:47;12.40;99.90
10051;DHT22;5065;46.942;7.432;2022-10-31T05:04:14;12.30;99.90
10051;DHT22;5065;46.942;7.432;2022-10-31T05:06:42;12.30;99.90
10051;DHT22;5065;46.942;7.432;2022-10-31T05:09:09;12.40;99.90
10051;DHT22;5065;46.942;7.432;2022-10-31T05:11:37;12.40;99.90
10051;DHT22;5065;46.942;7.432;2022-10-31T05:14:04;12.40;99.90
10051;DHT22;5065;46.942;7.432;2022-10-31T05:16:32;12.40;99.90
10051;DHT22;5065;46.942;7.432;2022-10-31T05:18:59;12.50;99.90
10051;DHT22;5065;46.942;7.432;2022-10-31T05:21:26;12.40;99.90
10051;DHT22;5065;46.942;7.432;2022-10-31T05:23:53;12.50;99.90
10051;DHT22;5065;46.942;7.432;2022-10-31T05:26:20;12.50;99.90
10051;DHT22;5065;46.942;7.432;2022-10-31T05:28:49;12.40;99.90
10051;DHT22;5065;46.942;7.432;2022-10-31T05:31:16;12.40;99.90
10051;DHT22;5065;46.942;7.432;2022-10-31T05:33:43;12.30;99.90
10051;DHT22;5065;46.942;7.432;2022-10-31T05:36:10;12.30;99.90
10051;DHT22;5065;46.942;7.432;2022-10-31T05:38:37;12.30;99.90
10051;DHT22;5065;46.942;7.432;2022-10-31T05:41:04;12.30;99.90
10051;DHT22;5065;46.942;7.432;2022-10-31T05:43:31;12.30;99.90
10051;DHT22;5065;46.942;7.432;2022-10-31T05:46:00;12.30;99.90
10051;DHT22;5065;46.942;7.432;2022-10-31T05:48:27;12.20;99.90
10051;DHT22;5065;46.942;7.432;2022-10-31T05:50:54;12.20;99.90
10051;DHT22;5065;46.942;7.432;2022-10-31T05:53:21;12.30;99.90
10051;DHT22;5065;46.942;7.432;2022-10-31T05:55:49;12.30;99.90
10051;DHT22;5065;46.942;7.432;2022-10-31T05:58:16;12.30;99.90
10051;DHT22;5065;46.942;7.432;2022-10-31T06:00:43;12.30;99.90
10051;DHT22;5065;46.942;7.432;2022-10-31T06:03:11;12.30;99.90
10051;DHT22;5065;46.942;7.432;2022-10-31T06:05:40;12.30;99.90
10051;DHT22;5065;46.942;7.432;2022-10-31T06:08:08;12.20;99.90
10051;DHT22;5065;46.942;7.432;2022-10-31T06:10:35;12.20;99.90
10051;DHT22;5065;46.942;7.432;2022-10-31T06:13:02;12.20;99.90
10051;DHT22;5065;46.942;7.432;2022-10-31T06:15:31;12.20;99.90
10051;DHT22;5065;46.942;7.432;2022-10-31T06:18:02;12.20;99.90
10051;DHT22;5065;46.942;7.432;2022-10-31T06:20:31;12.20;99.90
10051;DHT22;5065;46.942;7.432;2022-10-31T06:22:59;12.20;99.90
10051;DHT22;5065;46.942;7.432;2022-10-31T06:25:26;12.20;99.90
10051;DHT22;5065;46.942;7.432;2022-10-31T06:27:53;12.20;99.90
10051;DHT22;5065;46.942;7.432;2022-10-31T06:30:20;12.20;99.90
10051;DHT22;5065;46.942;7.432;2022-10-31T06:32:47;12.20;99.90
10051;DHT22;5065;46.942;7.432;2022-10-31T06:35:15;12.20;99.90
10051;DHT22;5065;46.942;7.432;2022-10-31T06:37:50;12.20;99.90
10051;DHT22;5065;46.942;7.432;2022-10-31T06:40:18;12.20;99.90
10051;DHT22;5065;46.942;7.432;2022-10-31T06:42:45;12.20;99.90
10051;DHT22;5065;46.942;7.432;2022-10-31T06:45:12;12.30;99.90
10051;DHT22;5065;46.942;7.432;2022-10-31T06:47:39;12.30;99.90
10051;DHT22;5065;46.942;7.432;2022-10-31T06:50:07;12.40;99.90
10051;DHT22;5065;46.942;7.432;2022-10-31T06:52:34;12.40;99.90
10051;DHT22;5065;46.942;7.432;2022-10-31T06:55:03;12.40;99.90
10051;DHT22;5065;46.942;7.432;2022-10-31T06:57:30;12.40;99.90
10051;DHT22;5065;46.942;7.432;2022-10-31T06:59:57;12.40;99.90
10051;DHT22;5065;46.942;7.432;2022-10-31T07:02:24;12.50;99.90
10051;DHT22;5065;46.942;7.432;2022-10-31T07:04:52;12.50;99.90
10051;DHT22;5065;46.942;7.432;2022-10-31T07:07:19;12.60;99.90
10051;DHT22;5065;46.942;7.432;2022-10-31T07:09:46;12.50;99.90
10051;DHT22;5065;46.942;7.432;2022-10-31T07:12:15;12.50;99.90
10051;DHT22;5065;46.942;7.432;2022-10-31T07:14:42;12.50;99.90
10051;DHT22;5065;46.942;7.432;2022-10-31T07:17:09;12.50;99.90
10051;DHT22;5065;46.942;7.432;2022-10-31T07:19:36;12.50;99.90
10051;DHT22;5065;46.942;7.432;2022-10-31T07:22:04;12.60;99.90
10051;DHT22;5065;46.942;7.432;2022-10-31T07:24:31;12.50;99.90
10051;DHT22;5065;46.942;7.432;2022-10-31T07:26:58;12.50;99.90
10051;DHT22;5065;46.942;7.432;2022-10-31T07:29:26;12.60;99.90
10051;DHT22;5065;46.942;7.432;2022-10-31T07:31:53;12.60;99.90
10051;DHT22;5065;46.942;7.432;2022-10-31T07:34:20;12.60;99.90
10051;DHT22;5065;46.942;7.432;2022-10-31T07:36:50;12.70;99.90
10051;DHT22;5065;46.942;7.432;2022-10-31T07:39:17;12.80;99.90
10051;DHT22;5065;46.942;7.432;2022-10-31T07:41:44;12.80;99.90
10051;DHT22;5065;46.942;7.432;2022-10-31T07:44:11;12.90;99.90
10051;DHT22;5065;46.942;7.432;2022-10-31T07:46:40;12.90;99.90
10051;DHT22;5065;46.942;7.432;2022-10-31T07:49:07;12.90;99.90
10051;DHT22;5065;46.942;7.432;2022-10-31T07:51:34;13.00;99.90
10051;DHT22;5065;46.942;7.432;2022-10-31T07:54:01;13.00;99.90
10051;DHT22;5065;46.942;7.432;2022-10-31T07:56:28;13.10;99.90
10051;DHT22;5065;46.942;7.432;2022-10-31T07:58:56;13.10;99.90
10051;DHT22;5065;46.942;7.432;2022-10-31T08:01:23;13.10;99.90
10051;DHT22;5065;46.942;7.432;2022-10-31T08:03:51;13.20;99.90
10051;DHT22;5065;46.942;7.432;2022-10-31T08:06:19;13.20;99.90
10051;DHT22;5065;46.942;7.432;2022-10-31T08:08:46;13.20;99.90
10051;DHT22;5065;46.942;7.432;2022-10-31T08:11:13;13.20;99.90
10051;DHT22;5065;46.942;7.432;2022-10-31T08:13:40;13.30;99.90
10051;DHT22;5065;46.942;7.432;2022-10-31T08:16:08;13.40;99.90
10051;DHT22;5065;46.942;7.432;2022-10-31T08:18:35;13.40;99.90
10051;DHT22;5065;46.942;7.432;2022-10-31T08:21:05;13.50;99.90
10051;DHT22;5065;46.942;7.432;2022-10-31T08:23:32;13.60;99.90
10051;DHT22;5065;46.942;7.432;2022-10-31T08:25:59;13.60;99.90
10051;DHT22;5065;46.942;7.432;2022-10-31T08:28:27;13.70;99.90
10051;DHT22;5065;46.942;7.432;2022-10-31T08:30:54;13.70;99.90
10051;DHT22;5065;46.942;7.432;2022-10-31T08:33:21;13.80;99.90
10051;DHT22;5065;46.942;7.432;2022-10-31T08:35:48;13.90;99.90
10051;DHT22;5065;46.942;7.432;2022-10-31T08:38:17;14.00;99.90
10051;DHT22;5065;46.942;7.432;2022-10-31T08:40:48;14.10;99.90
10051;DHT22;5065;46.942;7.432;2022-10-31T08:43:16;14.10;99.90
10051;DHT22;5065;46.942;7.432;2022-10-31T08:45:47;14.20;99.90
10051;DHT22;5065;46.942;7.432;2022-10-31T08:48:16;14.20;99.90
10051;DHT22;5065;46.942;7.432;2022-10-31T08:50:44;14.20;99.90
10051;DHT22;5065;46.942;7.432;2022-10-31T08:53:13;14.20;99.90
10051;DHT22;5065;46.942;7.432;2022-10-31T08:55:44;14.20;99.90
10051;DHT22;5065;46.942;7.432;2022-10-31T08:58:12;14.10;99.90
10051;DHT22;5065;46.942;7.432;2022-10-31T09:00:40;14.10;99.90
10051;DHT22;5065;46.942;7.432;2022-10-31T09:03:11;14.10;99.90
10051;DHT22;5065;46.942;7.432;2022-10-31T09:05:38;14.10;99.90
10051;DHT22;5065;46.942;7.432;2022-10-31T09:08:07;14.10;99.90
10051;DHT22;5065;46.942;7.432;2022-10-31T09:10:36;14.10;99.90
10051;DHT22;5065;46.942;7.432;2022-10-31T09:13:06;14.10;99.90
10051;DHT22;5065;46.942;7.432;2022-10-31T09:15:34;14.10;99.90
10051;DHT22;5065;46.942;7.432;2022-10-31T09:18:02;14.10;99.90
10051;DHT22;5065;46.942;7.432;2022-10-31T09:20:30;14.10;99.90
10051;DHT22;5065;46.942;7.432;2022-10-31T09:22:59;14.20;99.90
10051;DHT22;5065;46.942;7.432;2022-10-31T09:25:26;14.30;99.90
10051;DHT22;5065;46.942;7.432;2022-10-31T09:27:56;14.50;99.90
10051;DHT22;5065;46.942;7.432;2022-10-31T09:30:25;14.60;99.90
10051;DHT22;5065;46.942;7.432;2022-10-31T09:32:56;14.70;99.90
10051;DHT22;5065;46.942;7.432;2022-10-31T09:35:24;14.80;99.90
10051;DHT22;5065;46.942;7.432;2022-10-31T09:37:54;15.00;99.90
10051;DHT22;5065;46.942;7.432;2022-10-31T09:40:21;15.10;99.90
10051;DHT22;5065;46.942;7.432;2022-10-31T09:42:55;15.20;99.90
10051;DHT22;5065;46.942;7.432;2022-10-31T09:45:30;15.30;99.90
10051;DHT22;5065;46.942;7.432;2022-10-31T09:48:14;15.40;99.90
10051;DHT22;5065;46.942;7.432;2022-10-31T09:50:46;15.50;99.90
10051;DHT22;5065;46.942;7.432;2022-10-31T09:53:23;15.60;99.90
10051;DHT22;5065;46.942;7.432;2022-10-31T09:55:53;15.70;99.90
10051;DHT22;5065;46.942;7.432;2022-10-31T09:58:23;15.70;99.90
10051;DHT22;5065;46.942;7.432;2022-10-31T10:00:58;15.90;99.90
10051;DHT22;5065;46.942;7.432;2022-10-31T10:03:31;16.00;99.90
10051;DHT22;5065;46.942;7.432;2022-10-31T10:06:07;16.10;99.90
10051;DHT22;5065;46.942;7.432;2022-10-31T10:08:36;16.20;99.90
10051;DHT22;5065;46.942;7.432;2022-10-31T10:11:14;16.30;99.90
10051;DHT22;5065;46.942;7.432;2022-10-31T10:14:01;16.40;99.90
10051;DHT22;5065;46.942;7.432;2022-10-31T10:16:47;16.50;99.90
10051;DHT22;5065;46.942;7.432;2022-10-31T10:19:30;16.40;99.90
10051;DHT22;5065;46.942;7.432;2022-10-31T10:22:04;16.40;99.90
10051;DHT22;5065;46.942;7.432;2022-10-31T10:24:43;16.50;99.90
10051;DHT22;5065;46.942;7.432;2022-10-31T10:27:19;16.50;99.90
10051;DHT22;5065;46.942;7.432;2022-10-31T10:29:50;16.60;99.90
10051;DHT22;5065;46.942;7.432;2022-10-31T10:32:24;16.60;99.90
10051;DHT22;5065;46.942;7.432;2022-10-31T10:34:53;16.60;99.90
10051;DHT22;5065;46.942;7.432;2022-10-31T10:37:26;16.70;99.90
10051;DHT22;5065;46.942;7.432;2022-10-31T10:39:58;16.70;99.90
10051;DHT22;5065;46.942;7.432;2022-10-31T10:42:27;16.70;99.90
10051;DHT22;5065;46.942;7.432;2022-10-31T10:45:15;16.80;99.90
10051;DHT22;5065;46.942;7.432;2022-10-31T10:48:06;16.80;99.90
10051;DHT22;5065;46.942;7.432;2022-10-31T10:50:39;16.80;99.90
10051;DHT22;5065;46.942;7.432;2022-10-31T10:53:17;16.80;99.90
10051;DHT22;5065;46.942;7.432;2022-10-31T10:55:59;16.90;99.90
10051;DHT22;5065;46.942;7.432;2022-10-31T10:58:30;17.00;99.90
10051;DHT22;5065;46.942;7.432;2022-10-31T11:00:58;17.00;99.90
10051;DHT22;5065;46.942;7.432;2022-10-31T11:03:26;17.10;99.90
10051;DHT22;5065;46.942;7.432;2022-10-31T11:05:55;17.10;99.90
10051;DHT22;5065;46.942;7.432;2022-10-31T11:08:24;17.20;99.90
10051;DHT22;5065;46.942;7.432;2022-10-31T11:11:03;17.20;99.90
10051;DHT22;5065;46.942;7.432;2022-10-31T11:13:31;17.20;99.90
10051;DHT22;5065;46.942;7.432;2022-10-31T11:16:02;17.30;99.90
10051;DHT22;5065;46.942;7.432;2022-10-31T11:18:32;17.30;99.90
10051;DHT22;5065;46.942;7.432;2022-10-31T11:21:02;17.30;99.90
10051;DHT22;5065;46.942;7.432;2022-10-31T11:23:30;17.40;99.90
10051;DHT22;5065;46.942;7.432;2022-10-31T11:26:00;17.50;99.90
10051;DHT22;5065;46.942;7.432;2022-10-31T11:28:28;17.40;99.90
10051;DHT22;5065;46.942;7.432;2022-10-31T11:30:59;17.50;99.90
10051;DHT22;5065;46.942;7.432;2022-10-31T11:33:31;17.60;99.90
10051;DHT22;5065;46.942;7.432;2022-10-31T11:36:00;17.60;99.90
10051;DHT22;5065;46.942;7.432;2022-10-31T11:38:33;17.60;99.90
10051;DHT22;5065;46.942;7.432;2022-10-31T11:41:08;17.60;99.90
10051;DHT22;5065;46.942;7.432;2022-10-31T11:43:36;17.60;99.90
10051;DHT22;5065;46.942;7.432;2022-10-31T11:46:09;17.70;99.90
10051;DHT22;5065;46.942;7.432;2022-10-31T11:48:38;17.70;99.90
10051;DHT22;5065;46.942;7.432;2022-10-31T11:51:05;17.80;99.90
10051;DHT22;5065;46.942;7.432;2022-10-31T11:53:34;17.80;99.90
10051;DHT22;5065;46.942;7.432;2022-10-31T11:56:05;17.80;99.90
10051;DHT22;5065;46.942;7.432;2022-10-31T11:58:32;17.90;99.90
10051;DHT22;5065;46.942;7.432;2022-10-31T12:00:59;17.90;99.90
10051;DHT22;5065;46.942;7.432;2022-10-31T12:03:37;18.00;99.90
10051;DHT22;5065;46.942;7.432;2022-10-31T12:06:10;18.00;99.90
10051;DHT22;5065;46.942;7.432;2022-10-31T12:08:40;17.90;99.90
10051;DHT22;5065;46.942;7.432;2022-10-31T12:11:15;17.90;99.90
10051;DHT22;5065;46.942;7.432;2022-10-31T12:14:00;17.90;99.90
10051;DHT22;5065;46.942;7.432;2022-10-31T12:16:36;17.90;99.90
10051;DHT22;5065;46.942;7.432;2022-10-31T12:19:14;17.90;99.90
10051;DHT22;5065;46.942;7.432;2022-10-31T12:22:01;17.90;99.90
10051;DHT22;5065;46.942;7.432;2022-10-31T12:24:51;17.90;99.90
10051;DHT22;5065;46.942;7.432;2022-10-31T12:27:30;17.90;99.90
10051;DHT22;5065;46.942;7.432;2022-10-31T12:30:16;18.00;99.90
10051;DHT22;5065;46.942;7.432;2022-10-31T12:33:19;18.00;99.90
10051;DHT22;5065;46.942;7.432;2022-10-31T12:35:58;18.00;99.90
10051;DHT22;5065;46.942;7.432;2022-10-31T12:38:46;18.00;99.90
10051;DHT22;5065;46.942;7.432;2022-10-31T12:41:26;18.10;99.90
10051;DHT22;5065;46.942;7.432;2022-10-31T12:44:00;18.10;99.90
10051;DHT22;5065;46.942;7.432;2022-10-31T12:46:51;18.10;99.90
10051;DHT22;5065;46.942;7.432;2022-10-31T12:49:41;18.20;99.90
10051;DHT22;5065;46.942;7.432;2022-10-31T12:52:25;18.20;99.90
10051;DHT22;5065;46.942;7.432;2022-10-31T12:55:08;18.20;99.90
10051;DHT22;5065;46.942;7.432;2022-10-31T12:57:40;18.20;99.90
10051;DHT22;5065;46.942;7.432;2022-10-31T13:00:12;18.20;99.90
10051;DHT22;5065;46.942;7.432;2022-10-31T13:02:46;18.30;99.90
10051;DHT22;5065;46.942;7.432;2022-10-31T13:05:19;18.30;99.90
10051;DHT22;5065;46.942;7.432;2022-10-31T13:07:51;18.30;99.90
10051;DHT22;5065;46.942;7.432;2022-10-31T13:10:24;18.30;99.90
10051;DHT22;5065;46.942;7.432;2022-10-31T13:12:55;18.30;99.90
10051;DHT22;5065;46.942;7.432;2022-10-31T13:15:26;18.30;99.90
10051;DHT22;5065;46.942;7.432;2022-10-31T13:17:56;18.40;99.90
10051;DHT22;5065;46.942;7.432;2022-10-31T13:20:27;18.30;99.90
10051;DHT22;5065;46.942;7.432;2022-10-31T13:22:59;18.30;99.90
10051;DHT22;5065;46.942;7.432;2022-10-31T13:25:36;18.30;99.90
10051;DHT22;5065;46.942;7.432;2022-10-31T13:28:12;18.40;99.90
10051;DHT22;5065;46.942;7.432;2022-10-31T13:30:47;18.30;99.90
10051;DHT22;5065;46.942;7.432;2022-10-31T13:33:18;18.40;99.90
10051;DHT22;5065;46.942;7.432;2022-10-31T13:35:51;18.40;99.90
10051;DHT22;5065;46.942;7.432;2022-10-31T13:38:22;18.40;99.90
10051;DHT22;5065;46.942;7.432;2022-10-31T13:40:56;18.40;99.90
10051;DHT22;5065;46.942;7.432;2022-10-31T13:43:32;18.40;99.90
10051;DHT22;5065;46.942;7.432;2022-10-31T13:46:00;18.40;99.90
10051;DHT22;5065;46.942;7.432;2022-10-31T13:48:36;18.40;99.90
10051;DHT22;5065;46.942;7.432;2022-10-31T13:51:06;18.40;99.90
10051;DHT22;5065;46.942;7.432;2022-10-31T13:53:45;18.40;99.90
10051;DHT22;5065;46.942;7.432;2022-10-31T13:56:26;18.30;99.90
10051;DHT22;5065;46.942;7.432;2022-10-31T13:59:02;18.30;99.90
10051;DHT22;5065;46.942;7.432;2022-10-31T14:01:31;18.40;99.90
10051;DHT22;5065;46.942;7.432;2022-10-31T14:04:03;18.40;99.90
10051;DHT22;5065;46.942;7.432;2022-10-31T14:06:43;18.40;99.90
10051;DHT22;5065;46.942;7.432;2022-10-31T14:09:20;18.40;99.90
10051;DHT22;5065;46.942;7.432;2022-10-31T14:11:49;18.50;99.90
10051;DHT22;5065;46.942;7.432;2022-10-31T14:14:18;18.50;99.90
10051;DHT22;5065;46.942;7.432;2022-10-31T14:16:46;18.50;99.90
10051;DHT22;5065;46.942;7.432;2022-10-31T14:19:20;18.50;99.90
10051;DHT22;5065;46.942;7.432;2022-10-31T14:21:48;18.50;99.90
10051;DHT22;5065;46.942;7.432;2022-10-31T14:24:31;18.50;99.90
10051;DHT22;5065;46.942;7.432;2022-10-31T14:27:02;18.60;99.90
10051;DHT22;5065;46.942;7.432;2022-10-31T14:29:30;18.50;99.90
10051;DHT22;5065;46.942;7.432;2022-10-31T14:32:19;18.60;99.90
10051;DHT22;5065;46.942;7.432;2022-10-31T14:34:53;18.60;99.90
10051;DHT22;5065;46.942;7.432;2022-10-31T14:37:35;18.60;99.90
10051;DHT22;5065;46.942;7.432;2022-10-31T14:40:17;18.50;99.90
10051;DHT22;5065;46.942;7.432;2022-10-31T14:43:12;18.60;99.90
10051;DHT22;5065;46.942;7.432;2022-10-31T14:45:49;18.60;99.90
10051;DHT22;5065;46.942;7.432;2022-10-31T14:48:31;18.60;99.90
10051;DHT22;5065;46.942;7.432;2022-10-31T14:51:01;18.60;99.90
10051;DHT22;5065;46.942;7.432;2022-10-31T14:53:30;18.60;99.90
10051;DHT22;5065;46.942;7.432;2022-10-31T14:55:59;18.50;99.90
10051;DHT22;5065;46.942;7.432;2022-10-31T14:58:33;18.50;99.90
10051;DHT22;5065;46.942;7.432;2022-10-31T15:01:02;18.40;99.90
10051;DHT22;5065;46.942;7.432;2022-10-31T15:03:31;18.40;99.90
10051;DHT22;5065;46.942;7.432;2022-10-31T15:06:02;18.40;99.90
10051;DHT22;5065;46.942;7.432;2022-10-31T15:08:37;18.30;99.90
10051;DHT22;5065;46.942;7.432;2022-10-31T15:11:10;18.40;99.90
10051;DHT22;5065;46.942;7.432;2022-10-31T15:13:44;18.40;99.90
10051;DHT22;5065;46.942;7.432;2022-10-31T15:16:13;18.30;99.90
10051;DHT22;5065;46.942;7.432;2022-10-31T15:18:47;18.20;99.90
10051;DHT22;5065;46.942;7.432;2022-10-31T15:21:15;18.20;99.90
10051;DHT22;5065;46.942;7.432;2022-10-31T15:23:43;18.20;99.90
10051;DHT22;5065;46.942;7.432;2022-10-31T15:26:17;18.10;99.90
10051;DHT22;5065;46.942;7.432;2022-10-31T15:28:46;18.10;99.90
10051;DHT22;5065;46.942;7.432;2022-10-31T15:31:24;18.10;99.90
10051;DHT22;5065;46.942;7.432;2022-10-31T15:33:52;18.00;99.90
10051;DHT22;5065;46.942;7.432;2022-10-31T15:36:21;18.00;99.90
10051;DHT22;5065;46.942;7.432;2022-10-31T15:38:49;17.90;99.90
10051;DHT22;5065;46.942;7.432;2022-10-31T15:41:30;17.90;99.90
10051;DHT22;5065;46.942;7.432;2022-10-31T15:44:04;17.90;99.90
10051;DHT22;5065;46.942;7.432;2022-10-31T15:46:31;17.90;99.90
10051;DHT22;5065;46.942;7.432;2022-10-31T15:49:00;17.80;99.90
10051;DHT22;5065;46.942;7.432;2022-10-31T15:51:29;17.80;99.90
10051;DHT22;5065;46.942;7.432;2022-10-31T15:53:58;17.80;99.90
10051;DHT22;5065;46.942;7.432;2022-10-31T15:56:28;17.70;99.90
10051;DHT22;5065;46.942;7.432;2022-10-31T15:58:58;17.70;99.90
10051;DHT22;5065;46.942;7.432;2022-10-31T16:01:30;17.60;99.90
10051;DHT22;5065;46.942;7.432;2022-10-31T16:03:59;17.60;99.90
10051;DHT22;5065;46.942;7.432;2022-10-31T16:06:27;17.60;99.90
10051;DHT22;5065;46.942;7.432;2022-10-31T16:08:54;17.60;99.90
10051;DHT22;5065;46.942;7.432;2022-10-31T16:11:24;17.60;99.90